sensor_id;sensor_type;location;lat;lon;timestamp;temperature;humidity
10447;DHT22;70909;45.768;4.884;2023-07-31T00:01:18;24.20;69.60
10447;DHT22;70909;45.768;4.884;2023-07-31T00:03:45;24.10;69.60
10447;DHT22;70909;45.768;4.884;2023-07-31T00:06:12;24.10;69.70
10447;DHT22;70909;45.768;4.884;2023-07-31T00:08:39;24.10;69.90
10447;DHT22;70909;45.768;4.884;2023-07-31T00:11:07;24.10;70.00
10447;DHT22;70909;45.768;4.884;2023-07-31T00:13:34;24.10;70.30
10447;DHT22;70909;45.768;4.884;2023-07-31T00:16:01;24.00;70.30
10447;DHT22;70909;45.768;4.884;2023-07-31T00:18:28;24.10;70.40
10447;DHT22;70909;45.768;4.884;2023-07-31T00:20:55;24.10;70.30
10447;DHT22;70909;45.768;4.884;2023-07-31T00:23:21;24.10;70.40
10447;DHT22;70909;45.768;4.884;2023-07-31T00:25:48;24.00;70.60
10447;DHT22;70909;45.768;4.884;2023-07-31T00:28:17;24.00;70.80
10447;DHT22;70909;45.768;4.884;2023-07-31T00:30:43;24.00;70.80
10447;DHT22;70909;45.768;4.884;2023-07-31T00:33:10;24.00;70.80
10447;DHT22;70909;45.768;4.884;2023-07-31T00:35:37;24.00;70.80
10447;DHT22;70909;45.768;4.884;2023-07-31T00:38:04;24.00;70.80
10447;DHT22;70909;45.768;4.884;2023-07-31T00:40:34;24.00;70.60
10447;DHT22;70909;45.768;4.884;2023-07-31T00:43:01;24.00;70.50
10447;DHT22;70909;45.768;4.884;2023-07-31T00:45:30;24.00;70.30
10447;DHT22;70909;45.768;4.884;2023-07-31T00:47:58;24.00;70.20
10447;DHT22;70909;45.768;4.884;2023-07-31T00:50:25;24.00;70.10
10447;DHT22;70909;45.768;4.884;2023-07-31T00:52:53;23.90;70.20
10447;DHT22;70909;45.768;4.884;2023-07-31T00:55:20;23.90;70.30
10447;DHT22;70909;45.768;4.884;2023-07-31T00:57:48;23.80;70.40
10447;DHT22;70909;45.768;4.884;2023-07-31T01:00:16;23.90;70.60
10447;DHT22;70909;45.768;4.884;2023-07-31T01:02:44;23.90;70.60
10447;DHT22;70909;45.768;4.884;2023-07-31T01:05:11;23.90;70.70
10447;DHT22;70909;45.768;4.884;2023-07-31T01:07:44;23.80;70.60
10447;DHT22;70909;45.768;4.884;2023-07-31T01:10:18;23.80;70.80
10447;DHT22;70909;45.768;4.884;2023-07-31T01:12:48;23.80;70.90
10447;DHT22;70909;45.768;4.884;2023-07-31T01:15:15;23.80;70.90
10447;DHT22;70909;45.768;4.884;2023-07-31T01:17:44;23.90;70.90
10447;DHT22;70909;45.768;4.884;2023-07-31T01:20:14;23.90;70.90
10447;DHT22;70909;45.768;4.884;2023-07-31T01:23:27;23.90;71.00
10447;DHT22;70909;45.768;4.884;2023-07-31T01:26:04;23.90;71.40
10447;DHT22;70909;45.768;4.884;2023-07-31T01:28:41;23.80;71.10
10447;DHT22;70909;45.768;4.884;2023-07-31T01:31:14;23.80;71.40
10447;DHT22;70909;45.768;4.884;2023-07-31T01:33:41;23.70;71.30
10447;DHT22;70909;45.768;4.884;2023-07-31T01:36:08;23.70;71.40
10447;DHT22;70909;45.768;4.884;2023-07-31T01:38:35;23.70;71.60
10447;DHT22;70909;45.768;4.884;2023-07-31T01:41:03;23.60;71.70
10447;DHT22;70909;45.768;4.884;2023-07-31T01:43:30;23.60;71.80
10447;DHT22;70909;45.768;4.884;2023-07-31T01:45:57;23.60;71.70
10447;DHT22;70909;45.768;4.884;2023-07-31T01:48:24;23.60;71.70
10447;DHT22;70909;45.768;4.884;2023-07-31T01:50:51;23.60;71.70
10447;DHT22;70909;45.768;4.884;2023-07-31T01:53:18;23.60;71.80
10447;DHT22;70909;45.768;4.884;2023-07-31T01:55:44;23.60;71.80
10447;DHT22;70909;45.768;4.884;2023-07-31T01:58:12;23.60;71.90
10447;DHT22;70909;45.768;4.884;2023-07-31T02:00:39;23.50;71.90
10447;DHT22;70909;45.768;4.884;2023-07-31T02:03:06;23.50;72.00
10447;DHT22;70909;45.768;4.884;2023-07-31T02:05:33;23.50;72.00
10447;DHT22;70909;45.768;4.884;2023-07-31T02:08:00;23.50;72.70
10447;DHT22;70909;45.768;4.884;2023-07-31T02:10:27;23.50;72.00
10447;DHT22;70909;45.768;4.884;2023-07-31T02:12:53;23.50;72.00
10447;DHT22;70909;45.768;4.884;2023-07-31T02:15:22;23.50;72.20
10447;DHT22;70909;45.768;4.884;2023-07-31T02:17:48;23.40;72.40
10447;DHT22;70909;45.768;4.884;2023-07-31T02:20:15;23.40;72.50
10447;DHT22;70909;45.768;4.884;2023-07-31T02:22:42;23.30;72.80
10447;DHT22;70909;45.768;4.884;2023-07-31T02:25:09;23.20;73.00
10447;DHT22;70909;45.768;4.884;2023-07-31T02:27:36;23.20;73.30
10447;DHT22;70909;45.768;4.884;2023-07-31T02:30:03;23.10;73.60
10447;DHT22;70909;45.768;4.884;2023-07-31T02:32:31;23.00;73.90
10447;DHT22;70909;45.768;4.884;2023-07-31T02:34:58;23.00;73.90
10447;DHT22;70909;45.768;4.884;2023-07-31T02:37:25;23.10;73.70
10447;DHT22;70909;45.768;4.884;2023-07-31T02:39:54;23.10;73.50
10447;DHT22;70909;45.768;4.884;2023-07-31T02:42:21;23.20;73.30
10447;DHT22;70909;45.768;4.884;2023-07-31T02:44:47;23.20;73.20
10447;DHT22;70909;45.768;4.884;2023-07-31T02:47:16;23.20;73.30
10447;DHT22;70909;45.768;4.884;2023-07-31T02:49:44;23.20;73.40
10447;DHT22;70909;45.768;4.884;2023-07-31T02:52:11;23.20;73.50
10447;DHT22;70909;45.768;4.884;2023-07-31T02:54:38;23.20;73.40
10447;DHT22;70909;45.768;4.884;2023-07-31T02:57:05;23.20;73.50
10447;DHT22;70909;45.768;4.884;2023-07-31T02:59:32;23.20;73.60
10447;DHT22;70909;45.768;4.884;2023-07-31T03:01:59;23.20;73.60
10447;DHT22;70909;45.768;4.884;2023-07-31T03:04:26;23.20;73.60
10447;DHT22;70909;45.768;4.884;2023-07-31T03:06:54;23.20;73.70
10447;DHT22;70909;45.768;4.884;2023-07-31T03:09:21;23.20;74.40
10447;DHT22;70909;45.768;4.884;2023-07-31T03:11:47;23.10;73.90
10447;DHT22;70909;45.768;4.884;2023-07-31T03:14:14;23.10;73.90
10447;DHT22;70909;45.768;4.884;2023-07-31T03:16:41;23.00;74.00
10447;DHT22;70909;45.768;4.884;2023-07-31T03:19:08;23.00;74.10
10447;DHT22;70909;45.768;4.884;2023-07-31T03:21:35;23.00;74.10
10447;DHT22;70909;45.768;4.884;2023-07-31T03:24:03;23.10;74.20
10447;DHT22;70909;45.768;4.884;2023-07-31T03:26:31;23.10;74.40
10447;DHT22;70909;45.768;4.884;2023-07-31T03:28:58;23.00;74.40
10447;DHT22;70909;45.768;4.884;2023-07-31T03:31:25;23.00;74.50
10447;DHT22;70909;45.768;4.884;2023-07-31T03:33:51;23.00;74.90
10447;DHT22;70909;45.768;4.884;2023-07-31T03:36:19;22.90;75.00
10447;DHT22;70909;45.768;4.884;2023-07-31T03:38:46;22.60;75.60
10447;DHT22;70909;45.768;4.884;2023-07-31T03:41:14;22.50;76.90
10447;DHT22;70909;45.768;4.884;2023-07-31T03:43:41;22.50;76.50
10447;DHT22;70909;45.768;4.884;2023-07-31T03:46:08;22.50;76.70
10447;DHT22;70909;45.768;4.884;2023-07-31T03:48:34;22.60;76.90
10447;DHT22;70909;45.768;4.884;2023-07-31T03:51:01;22.60;77.00
10447;DHT22;70909;45.768;4.884;2023-07-31T03:53:28;22.70;77.00
10447;DHT22;70909;45.768;4.884;2023-07-31T03:55:55;22.70;77.00
10447;DHT22;70909;45.768;4.884;2023-07-31T03:58:23;22.80;77.00
10447;DHT22;70909;45.768;4.884;2023-07-31T04:00:50;22.80;77.20
10447;DHT22;70909;45.768;4.884;2023-07-31T04:03:17;22.80;77.20
10447;DHT22;70909;45.768;4.884;2023-07-31T04:05:44;22.80;77.30
10447;DHT22;70909;45.768;4.884;2023-07-31T04:08:11;22.80;78.10
10447;DHT22;70909;45.768;4.884;2023-07-31T04:10:38;22.80;77.70
10447;DHT22;70909;45.768;4.884;2023-07-31T04:13:04;22.70;77.80
10447;DHT22;70909;45.768;4.884;2023-07-31T04:15:33;22.70;78.00
10447;DHT22;70909;45.768;4.884;2023-07-31T04:17:59;22.70;78.20
10447;DHT22;70909;45.768;4.884;2023-07-31T04:20:26;22.70;78.30
10447;DHT22;70909;45.768;4.884;2023-07-31T04:22:53;22.60;78.10
10447;DHT22;70909;45.768;4.884;2023-07-31T04:25:20;22.70;77.90
10447;DHT22;70909;45.768;4.884;2023-07-31T04:27:47;22.60;78.00
10447;DHT22;70909;45.768;4.884;2023-07-31T04:30:14;22.70;78.10
10447;DHT22;70909;45.768;4.884;2023-07-31T04:32:42;22.70;78.10
10447;DHT22;70909;45.768;4.884;2023-07-31T04:35:09;22.60;78.60
10447;DHT22;70909;45.768;4.884;2023-07-31T04:37:36;22.60;78.10
10447;DHT22;70909;45.768;4.884;2023-07-31T04:40:04;22.60;78.30
10447;DHT22;70909;45.768;4.884;2023-07-31T04:42:31;22.60;78.60
10447;DHT22;70909;45.768;4.884;2023-07-31T04:44:58;22.60;78.70
10447;DHT22;70909;45.768;4.884;2023-07-31T04:47:25;22.60;78.60
10447;DHT22;70909;45.768;4.884;2023-07-31T04:49:53;22.60;78.40
10447;DHT22;70909;45.768;4.884;2023-07-31T04:52:20;22.60;78.40
10447;DHT22;70909;45.768;4.884;2023-07-31T04:54:46;22.50;78.10
10447;DHT22;70909;45.768;4.884;2023-07-31T04:57:14;22.50;78.20
10447;DHT22;70909;45.768;4.884;2023-07-31T04:59:41;22.40;78.60
10447;DHT22;70909;45.768;4.884;2023-07-31T05:02:08;22.40;79.50
10447;DHT22;70909;45.768;4.884;2023-07-31T05:04:35;22.30;79.10
10447;DHT22;70909;45.768;4.884;2023-07-31T05:07:04;22.30;79.40
10447;DHT22;70909;45.768;4.884;2023-07-31T05:09:31;22.30;79.80
10447;DHT22;70909;45.768;4.884;2023-07-31T05:11:58;22.30;79.80
10447;DHT22;70909;45.768;4.884;2023-07-31T05:14:25;22.30;80.00
10447;DHT22;70909;45.768;4.884;2023-07-31T05:16:52;22.20;80.20
10447;DHT22;70909;45.768;4.884;2023-07-31T05:19:19;22.20;80.40
10447;DHT22;70909;45.768;4.884;2023-07-31T05:21:46;22.20;80.70
10447;DHT22;70909;45.768;4.884;2023-07-31T05:24:14;22.10;81.10
10447;DHT22;70909;45.768;4.884;2023-07-31T05:26:41;22.20;81.30
10447;DHT22;70909;45.768;4.884;2023-07-31T05:29:08;22.10;81.30
10447;DHT22;70909;45.768;4.884;2023-07-31T05:31:34;22.10;81.50
10447;DHT22;70909;45.768;4.884;2023-07-31T05:34:01;22.00;81.80
10447;DHT22;70909;45.768;4.884;2023-07-31T05:36:28;21.80;81.80
10447;DHT22;70909;45.768;4.884;2023-07-31T05:38:55;21.70;82.20
10447;DHT22;70909;45.768;4.884;2023-07-31T05:41:23;21.50;82.30
10447;DHT22;70909;45.768;4.884;2023-07-31T05:43:50;21.60;82.30
10447;DHT22;70909;45.768;4.884;2023-07-31T05:46:17;21.60;82.20
10447;DHT22;70909;45.768;4.884;2023-07-31T05:48:44;21.60;82.60
10447;DHT22;70909;45.768;4.884;2023-07-31T05:51:11;21.50;82.30
10447;DHT22;70909;45.768;4.884;2023-07-31T05:53:37;21.50;82.50
10447;DHT22;70909;45.768;4.884;2023-07-31T05:56:06;21.60;83.10
10447;DHT22;70909;45.768;4.884;2023-07-31T05:58:34;21.70;82.60
10447;DHT22;70909;45.768;4.884;2023-07-31T06:01:01;21.60;82.80
10447;DHT22;70909;45.768;4.884;2023-07-31T06:03:28;21.70;82.80
10447;DHT22;70909;45.768;4.884;2023-07-31T06:05:54;21.70;82.70
10447;DHT22;70909;45.768;4.884;2023-07-31T06:08:21;21.80;82.50
10447;DHT22;70909;45.768;4.884;2023-07-31T06:10:48;21.90;82.40
10447;DHT22;70909;45.768;4.884;2023-07-31T06:13:15;21.90;82.20
10447;DHT22;70909;45.768;4.884;2023-07-31T06:15:43;21.90;81.90
10447;DHT22;70909;45.768;4.884;2023-07-31T06:18:10;21.90;81.90
10447;DHT22;70909;45.768;4.884;2023-07-31T06:20:37;21.90;82.00
10447;DHT22;70909;45.768;4.884;2023-07-31T06:23:06;22.00;81.70
10447;DHT22;70909;45.768;4.884;2023-07-31T06:25:32;22.10;81.70
10447;DHT22;70909;45.768;4.884;2023-07-31T06:27:59;22.00;81.70
10447;DHT22;70909;45.768;4.884;2023-07-31T06:30:26;22.10;81.60
10447;DHT22;70909;45.768;4.884;2023-07-31T06:32:54;22.20;81.40
10447;DHT22;70909;45.768;4.884;2023-07-31T06:35:21;22.20;81.30
10447;DHT22;70909;45.768;4.884;2023-07-31T06:37:48;22.20;81.20
10447;DHT22;70909;45.768;4.884;2023-07-31T06:40:16;22.20;81.60
10447;DHT22;70909;45.768;4.884;2023-07-31T06:42:43;22.10;81.70
10447;DHT22;70909;45.768;4.884;2023-07-31T06:45:10;22.10;81.70
10447;DHT22;70909;45.768;4.884;2023-07-31T06:47:37;22.20;81.60
10447;DHT22;70909;45.768;4.884;2023-07-31T06:50:06;22.30;81.60
10447;DHT22;70909;45.768;4.884;2023-07-31T06:52:33;22.30;81.50
10447;DHT22;70909;45.768;4.884;2023-07-31T06:55:08;22.30;81.40
10447;DHT22;70909;45.768;4.884;2023-07-31T06:57:42;22.30;81.50
10447;DHT22;70909;45.768;4.884;2023-07-31T07:00:09;22.30;81.50
10447;DHT22;70909;45.768;4.884;2023-07-31T07:02:36;22.40;81.50
10447;DHT22;70909;45.768;4.884;2023-07-31T07:05:04;22.40;81.40
10447;DHT22;70909;45.768;4.884;2023-07-31T07:07:32;22.40;81.30
10447;DHT22;70909;45.768;4.884;2023-07-31T07:09:59;22.40;81.10
10447;DHT22;70909;45.768;4.884;2023-07-31T07:12:26;22.40;81.20
10447;DHT22;70909;45.768;4.884;2023-07-31T07:14:52;22.40;81.20
10447;DHT22;70909;45.768;4.884;2023-07-31T07:17:19;22.40;81.10
10447;DHT22;70909;45.768;4.884;2023-07-31T07:19:48;22.50;81.20
10447;DHT22;70909;45.768;4.884;2023-07-31T07:22:15;22.60;80.90
10447;DHT22;70909;45.768;4.884;2023-07-31T07:24:43;22.70;80.70
10447;DHT22;70909;45.768;4.884;2023-07-31T07:27:10;22.80;80.50
10447;DHT22;70909;45.768;4.884;2023-07-31T07:29:37;23.00;80.10
10447;DHT22;70909;45.768;4.884;2023-07-31T07:32:05;23.20;79.50
10447;DHT22;70909;45.768;4.884;2023-07-31T07:34:32;23.50;78.70
10447;DHT22;70909;45.768;4.884;2023-07-31T07:36:59;23.70;78.00
10447;DHT22;70909;45.768;4.884;2023-07-31T07:39:26;23.90;77.20
10447;DHT22;70909;45.768;4.884;2023-07-31T07:41:54;24.20;76.70
10447;DHT22;70909;45.768;4.884;2023-07-31T07:44:21;24.50;76.10
10447;DHT22;70909;45.768;4.884;2023-07-31T07:46:48;24.70;75.40
10447;DHT22;70909;45.768;4.884;2023-07-31T07:49:14;24.90;74.80
10447;DHT22;70909;45.768;4.884;2023-07-31T07:51:41;25.20;74.50
10447;DHT22;70909;45.768;4.884;2023-07-31T07:54:08;25.40;74.30
10447;DHT22;70909;45.768;4.884;2023-07-31T07:56:35;25.60;74.00
10447;DHT22;70909;45.768;4.884;2023-07-31T07:59:03;25.80;73.00
10447;DHT22;70909;45.768;4.884;2023-07-31T08:01:30;26.00;72.60
10447;DHT22;70909;45.768;4.884;2023-07-31T08:03:58;26.10;72.20
10447;DHT22;70909;45.768;4.884;2023-07-31T08:06:25;26.40;71.80
10447;DHT22;70909;45.768;4.884;2023-07-31T08:08:51;26.50;71.10
10447;DHT22;70909;45.768;4.884;2023-07-31T08:11:18;26.60;70.40
10447;DHT22;70909;45.768;4.884;2023-07-31T08:13:45;26.60;70.70
10447;DHT22;70909;45.768;4.884;2023-07-31T08:16:14;26.80;70.30
10447;DHT22;70909;45.768;4.884;2023-07-31T08:18:40;26.90;69.50
10447;DHT22;70909;45.768;4.884;2023-07-31T08:21:08;27.00;69.40
10447;DHT22;70909;45.768;4.884;2023-07-31T08:23:34;26.80;68.70
10447;DHT22;70909;45.768;4.884;2023-07-31T08:26:01;26.60;69.00
10447;DHT22;70909;45.768;4.884;2023-07-31T08:28:28;26.60;69.10
10447;DHT22;70909;45.768;4.884;2023-07-31T08:30:55;26.60;68.80
10447;DHT22;70909;45.768;4.884;2023-07-31T08:33:23;26.80;69.20
10447;DHT22;70909;45.768;4.884;2023-07-31T08:35:50;27.20;69.00
10447;DHT22;70909;45.768;4.884;2023-07-31T08:38:17;27.50;68.40
10447;DHT22;70909;45.768;4.884;2023-07-31T08:40:43;27.70;67.70
10447;DHT22;70909;45.768;4.884;2023-07-31T08:43:10;27.90;67.50
10447;DHT22;70909;45.768;4.884;2023-07-31T08:45:38;28.20;67.00
10447;DHT22;70909;45.768;4.884;2023-07-31T08:48:08;28.40;66.40
10447;DHT22;70909;45.768;4.884;2023-07-31T08:50:36;28.70;65.70
10447;DHT22;70909;45.768;4.884;2023-07-31T08:53:04;28.80;64.90
10447;DHT22;70909;45.768;4.884;2023-07-31T08:55:32;28.90;64.80
10447;DHT22;70909;45.768;4.884;2023-07-31T08:58:00;29.10;64.30
10447;DHT22;70909;45.768;4.884;2023-07-31T09:00:31;29.10;65.00
10447;DHT22;70909;45.768;4.884;2023-07-31T09:03:00;29.10;64.00
10447;DHT22;70909;45.768;4.884;2023-07-31T09:05:29;29.10;64.30
10447;DHT22;70909;45.768;4.884;2023-07-31T09:07:58;28.80;64.10
10447;DHT22;70909;45.768;4.884;2023-07-31T09:10:24;28.40;63.60
10447;DHT22;70909;45.768;4.884;2023-07-31T09:12:52;28.00;64.80
10447;DHT22;70909;45.768;4.884;2023-07-31T09:15:19;27.80;65.00
10447;DHT22;70909;45.768;4.884;2023-07-31T09:17:46;27.50;65.30
10447;DHT22;70909;45.768;4.884;2023-07-31T09:20:14;27.30;65.80
10447;DHT22;70909;45.768;4.884;2023-07-31T09:22:42;27.30;66.10
10447;DHT22;70909;45.768;4.884;2023-07-31T09:25:19;27.30;66.90
10447;DHT22;70909;45.768;4.884;2023-07-31T09:27:47;27.20;65.60
10447;DHT22;70909;45.768;4.884;2023-07-31T09:30:14;27.10;66.30
10447;DHT22;70909;45.768;4.884;2023-07-31T09:32:42;27.00;67.50
10447;DHT22;70909;45.768;4.884;2023-07-31T09:35:16;26.80;66.90
10447;DHT22;70909;45.768;4.884;2023-07-31T09:37:48;26.80;67.10
10447;DHT22;70909;45.768;4.884;2023-07-31T09:40:29;26.80;67.10
10447;DHT22;70909;45.768;4.884;2023-07-31T09:42:58;26.90;67.30
10447;DHT22;70909;45.768;4.884;2023-07-31T09:45:25;27.00;67.30
10447;DHT22;70909;45.768;4.884;2023-07-31T09:47:52;27.00;67.00
10447;DHT22;70909;45.768;4.884;2023-07-31T09:50:21;27.00;66.90
10447;DHT22;70909;45.768;4.884;2023-07-31T09:52:48;27.00;66.80
10447;DHT22;70909;45.768;4.884;2023-07-31T09:55:14;26.90;66.60
10447;DHT22;70909;45.768;4.884;2023-07-31T09:57:45;26.80;67.00
10447;DHT22;70909;45.768;4.884;2023-07-31T10:00:14;26.70;67.20
10447;DHT22;70909;45.768;4.884;2023-07-31T10:02:42;26.70;67.20
10447;DHT22;70909;45.768;4.884;2023-07-31T10:05:13;26.70;67.20
10447;DHT22;70909;45.768;4.884;2023-07-31T10:07:43;26.60;67.00
10447;DHT22;70909;45.768;4.884;2023-07-31T10:10:10;26.60;67.20
10447;DHT22;70909;45.768;4.884;2023-07-31T10:12:38;26.60;67.30
10447;DHT22;70909;45.768;4.884;2023-07-31T10:15:08;26.70;67.20
10447;DHT22;70909;45.768;4.884;2023-07-31T10:17:36;26.80;66.50
10447;DHT22;70909;45.768;4.884;2023-07-31T10:20:04;26.60;66.70
10447;DHT22;70909;45.768;4.884;2023-07-31T10:22:33;26.60;67.00
10447;DHT22;70909;45.768;4.884;2023-07-31T10:25:01;26.70;67.10
10447;DHT22;70909;45.768;4.884;2023-07-31T10:27:28;26.70;66.90
10447;DHT22;70909;45.768;4.884;2023-07-31T10:29:56;26.80;66.40
10447;DHT22;70909;45.768;4.884;2023-07-31T10:32:26;26.70;66.60
10447;DHT22;70909;45.768;4.884;2023-07-31T10:34:54;26.60;66.50
10447;DHT22;70909;45.768;4.884;2023-07-31T10:37:23;26.60;66.80
10447;DHT22;70909;45.768;4.884;2023-07-31T10:40:02;26.60;66.90
10447;DHT22;70909;45.768;4.884;2023-07-31T10:42:33;26.60;66.10
10447;DHT22;70909;45.768;4.884;2023-07-31T10:45:02;26.60;66.30
10447;DHT22;70909;45.768;4.884;2023-07-31T10:47:30;26.60;66.80
10447;DHT22;70909;45.768;4.884;2023-07-31T10:50:15;26.70;66.80
10447;DHT22;70909;45.768;4.884;2023-07-31T10:52:46;26.90;66.40
10447;DHT22;70909;45.768;4.884;2023-07-31T10:57:57;27.10;66.10
10447;DHT22;70909;45.768;4.884;2023-07-31T11:00:26;27.00;66.10
10447;DHT22;70909;45.768;4.884;2023-07-31T11:02:59;27.10;65.80
10447;DHT22;70909;45.768;4.884;2023-07-31T11:05:45;27.10;65.80
10447;DHT22;70909;45.768;4.884;2023-07-31T11:08:16;27.20;65.10
10447;DHT22;70909;45.768;4.884;2023-07-31T11:10:44;27.10;65.50
10447;DHT22;70909;45.768;4.884;2023-07-31T11:13:12;27.20;65.50
10447;DHT22;70909;45.768;4.884;2023-07-31T11:15:39;27.20;65.60
10447;DHT22;70909;45.768;4.884;2023-07-31T11:18:07;27.30;65.70
10447;DHT22;70909;45.768;4.884;2023-07-31T11:20:37;27.30;65.50
10447;DHT22;70909;45.768;4.884;2023-07-31T11:23:06;27.40;65.20
10447;DHT22;70909;45.768;4.884;2023-07-31T11:25:34;27.40;64.70
10447;DHT22;70909;45.768;4.884;2023-07-31T11:28:04;27.30;64.50
10447;DHT22;70909;45.768;4.884;2023-07-31T11:30:31;27.30;64.70
10447;DHT22;70909;45.768;4.884;2023-07-31T11:32:58;27.30;64.10
10447;DHT22;70909;45.768;4.884;2023-07-31T11:35:26;27.30;63.60
10447;DHT22;70909;45.768;4.884;2023-07-31T11:37:53;27.30;63.50
10447;DHT22;70909;45.768;4.884;2023-07-31T11:40:19;27.30;63.10
10447;DHT22;70909;45.768;4.884;2023-07-31T11:42:46;27.30;63.30
10447;DHT22;70909;45.768;4.884;2023-07-31T11:45:13;27.30;63.30
10447;DHT22;70909;45.768;4.884;2023-07-31T11:47:40;27.40;63.10
10447;DHT22;70909;45.768;4.884;2023-07-31T11:50:10;27.30;62.90
10447;DHT22;70909;45.768;4.884;2023-07-31T11:52:42;27.40;62.60
10447;DHT22;70909;45.768;4.884;2023-07-31T11:55:10;27.40;62.80
10447;DHT22;70909;45.768;4.884;2023-07-31T11:57:39;27.30;63.20
10447;DHT22;70909;45.768;4.884;2023-07-31T12:00:08;27.40;63.40
10447;DHT22;70909;45.768;4.884;2023-07-31T12:02:36;27.30;63.60
10447;DHT22;70909;45.768;4.884;2023-07-31T12:05:05;27.30;63.60
10447;DHT22;70909;45.768;4.884;2023-07-31T12:07:49;27.30;63.80
10447;DHT22;70909;45.768;4.884;2023-07-31T12:10:27;27.20;63.80
10447;DHT22;70909;45.768;4.884;2023-07-31T12:13:04;27.30;63.90
10447;DHT22;70909;45.768;4.884;2023-07-31T12:15:39;27.20;63.60
10447;DHT22;70909;45.768;4.884;2023-07-31T12:18:08;27.20;64.00
10447;DHT22;70909;45.768;4.884;2023-07-31T12:20:40;27.20;64.00
10447;DHT22;70909;45.768;4.884;2023-07-31T12:23:13;27.10;64.30
10447;DHT22;70909;45.768;4.884;2023-07-31T12:25:40;27.10;64.30
10447;DHT22;70909;45.768;4.884;2023-07-31T12:28:07;27.00;64.50
10447;DHT22;70909;45.768;4.884;2023-07-31T12:30:38;27.10;64.50
10447;DHT22;70909;45.768;4.884;2023-07-31T12:33:06;27.10;64.60
10447;DHT22;70909;45.768;4.884;2023-07-31T12:35:37;27.10;64.30
10447;DHT22;70909;45.768;4.884;2023-07-31T12:38:04;27.10;64.30
10447;DHT22;70909;45.768;4.884;2023-07-31T12:40:32;27.10;64.30
10447;DHT22;70909;45.768;4.884;2023-07-31T12:43:01;27.20;64.20
10447;DHT22;70909;45.768;4.884;2023-07-31T12:45:29;27.20;63.80
10447;DHT22;70909;45.768;4.884;2023-07-31T12:47:56;27.20;63.80
10447;DHT22;70909;45.768;4.884;2023-07-31T12:50:23;27.20;63.60
10447;DHT22;70909;45.768;4.884;2023-07-31T12:52:51;27.10;63.70
10447;DHT22;70909;45.768;4.884;2023-07-31T12:55:18;27.10;63.90
10447;DHT22;70909;45.768;4.884;2023-07-31T12:57:46;27.20;64.00
10447;DHT22;70909;45.768;4.884;2023-07-31T13:00:13;27.20;63.80
10447;DHT22;70909;45.768;4.884;2023-07-31T13:02:40;27.20;63.70
10447;DHT22;70909;45.768;4.884;2023-07-31T13:05:07;27.20;64.00
10447;DHT22;70909;45.768;4.884;2023-07-31T13:07:34;27.10;64.10
10447;DHT22;70909;45.768;4.884;2023-07-31T13:10:01;27.20;64.00
10447;DHT22;70909;45.768;4.884;2023-07-31T13:12:28;27.20;63.50
10447;DHT22;70909;45.768;4.884;2023-07-31T13:14:56;27.20;63.80
10447;DHT22;70909;45.768;4.884;2023-07-31T13:17:23;27.20;63.80
10447;DHT22;70909;45.768;4.884;2023-07-31T13:19:50;27.20;63.30
10447;DHT22;70909;45.768;4.884;2023-07-31T13:22:17;27.20;63.50
10447;DHT22;70909;45.768;4.884;2023-07-31T13:24:43;27.20;63.30
10447;DHT22;70909;45.768;4.884;2023-07-31T13:27:10;27.20;63.30
10447;DHT22;70909;45.768;4.884;2023-07-31T13:29:37;27.20;63.40
10447;DHT22;70909;45.768;4.884;2023-07-31T13:32:06;27.20;63.50
10447;DHT22;70909;45.768;4.884;2023-07-31T13:34:32;27.20;63.10
10447;DHT22;70909;45.768;4.884;2023-07-31T13:36:59;27.20;63.30
10447;DHT22;70909;45.768;4.884;2023-07-31T13:39:26;27.30;63.30
10447;DHT22;70909;45.768;4.884;2023-07-31T13:41:53;27.30;63.30
10447;DHT22;70909;45.768;4.884;2023-07-31T13:44:20;27.30;63.30
10447;DHT22;70909;45.768;4.884;2023-07-31T13:46:47;27.40;63.00
10447;DHT22;70909;45.768;4.884;2023-07-31T13:49:15;27.40;63.20
10447;DHT22;70909;45.768;4.884;2023-07-31T13:51:42;27.40;63.10
10447;DHT22;70909;45.768;4.884;2023-07-31T13:54:09;27.40;62.90
10447;DHT22;70909;45.768;4.884;2023-07-31T13:56:37;27.40;62.70
10447;DHT22;70909;45.768;4.884;2023-07-31T13:59:04;27.40;62.80
10447;DHT22;70909;45.768;4.884;2023-07-31T14:01:31;27.40;63.50
10447;DHT22;70909;45.768;4.884;2023-07-31T14:03:57;27.40;62.80
10447;DHT22;70909;45.768;4.884;2023-07-31T14:06:26;27.50;62.40
10447;DHT22;70909;45.768;4.884;2023-07-31T14:08:52;27.50;63.20
10447;DHT22;70909;45.768;4.884;2023-07-31T14:11:21;27.50;62.50
10447;DHT22;70909;45.768;4.884;2023-07-31T14:13:47;27.50;62.60
10447;DHT22;70909;45.768;4.884;2023-07-31T14:16:14;27.60;62.50
10447;DHT22;70909;45.768;4.884;2023-07-31T14:18:41;27.60;62.50
10447;DHT22;70909;45.768;4.884;2023-07-31T14:21:08;27.70;62.50
10447;DHT22;70909;45.768;4.884;2023-07-31T14:23:36;27.70;62.30
10447;DHT22;70909;45.768;4.884;2023-07-31T14:26:03;27.70;62.30
10447;DHT22;70909;45.768;4.884;2023-07-31T14:28:30;27.70;62.30
10447;DHT22;70909;45.768;4.884;2023-07-31T14:30:57;27.80;62.10
10447;DHT22;70909;45.768;4.884;2023-07-31T14:33:24;27.80;62.20
10447;DHT22;70909;45.768;4.884;2023-07-31T14:35:52;27.80;62.00
10447;DHT22;70909;45.768;4.884;2023-07-31T14:38:19;27.80;62.20
10447;DHT22;70909;45.768;4.884;2023-07-31T14:40:47;27.80;62.40
10447;DHT22;70909;45.768;4.884;2023-07-31T14:43:15;27.80;62.20
10447;DHT22;70909;45.768;4.884;2023-07-31T14:45:41;27.90;62.20
10447;DHT22;70909;45.768;4.884;2023-07-31T14:48:08;27.90;61.90
10447;DHT22;70909;45.768;4.884;2023-07-31T14:50:35;27.90;61.80
10447;DHT22;70909;45.768;4.884;2023-07-31T14:53:02;27.90;61.90
10447;DHT22;70909;45.768;4.884;2023-07-31T14:55:29;27.90;62.00
10447;DHT22;70909;45.768;4.884;2023-07-31T14:57:57;27.90;61.80
10447;DHT22;70909;45.768;4.884;2023-07-31T15:00:24;28.00;61.80
10447;DHT22;70909;45.768;4.884;2023-07-31T15:02:52;28.00;61.40
10447;DHT22;70909;45.768;4.884;2023-07-31T15:05:18;28.10;61.50
10447;DHT22;70909;45.768;4.884;2023-07-31T15:07:45;28.10;61.50
10447;DHT22;70909;45.768;4.884;2023-07-31T15:10:12;28.00;61.50
10447;DHT22;70909;45.768;4.884;2023-07-31T15:12:40;28.00;61.50
10447;DHT22;70909;45.768;4.884;2023-07-31T15:15:09;28.00;61.50
10447;DHT22;70909;45.768;4.884;2023-07-31T15:17:35;28.00;61.60
10447;DHT22;70909;45.768;4.884;2023-07-31T15:20:02;28.00;61.60
10447;DHT22;70909;45.768;4.884;2023-07-31T15:22:30;28.00;61.60
10447;DHT22;70909;45.768;4.884;2023-07-31T15:24:57;28.10;61.40
10447;DHT22;70909;45.768;4.884;2023-07-31T15:27:24;28.20;61.10
10447;DHT22;70909;45.768;4.884;2023-07-31T15:29:51;28.30;61.00
10447;DHT22;70909;45.768;4.884;2023-07-31T15:32:19;28.30;60.70
10447;DHT22;70909;45.768;4.884;2023-07-31T15:34:46;28.30;61.00
10447;DHT22;70909;45.768;4.884;2023-07-31T15:37:13;28.20;61.00